Time;durP1;ratioP1;P1;durP2;ratioP2;P2;SDS_P1;SDS_P2;PMS_P1;PMS_P2;Temp;Humidity;BMP_temperature;BMP_pressure;BME280_temperature;BME280_humidity;BME280_pressure;Samples;Min_cycle;Max_cycle;Signal;HPM_P1;HPM_P2
2023/08/30 00:01:28;;;;;;;3.67;1.88;;;;;;;15.41;72.11;100930.97;5013308;28;96677;-27
2023/08/30 00:03:54;;;;;;;3.88;1.88;;;;;;;15.38;72.21;100917.56;5013366;28;96787;-26
2023/08/30 00:06:20;;;;;;;3.45;1.67;;;;;;;15.45;71.87;100927.84;5011722;28;99039;-26
2023/08/30 00:08:45;;;;;;;3.50;1.98;;;;;;;15.46;72.32;100923.25;5013271;28;97779;-26
2023/08/30 00:11:10;;;;;;;4.28;1.73;;;;;;;15.40;71.89;100904.66;5013200;28;96730;-27
2023/08/30 00:13:36;;;;;;;3.15;1.70;;;;;;;15.43;72.29;100916.19;5012990;28;96813;-26
2023/08/30 00:16:02;;;;;;;3.45;1.90;;;;;;;15.45;72.25;100911.47;5011737;28;99556;-26
2023/08/30 00:18:28;;;;;;;3.22;1.52;;;;;;;15.46;72.15;100910.47;5012455;28;98774;-27
2023/08/30 00:20:53;;;;;;;2.50;1.17;;;;;;;15.43;72.47;100901.69;5012996;28;96509;-27
2023/08/30 00:23:19;;;;;;;3.33;1.63;;;;;;;15.43;72.09;100902.53;5012641;28;98084;-28
2023/08/30 00:25:44;;;;;;;3.88;1.90;;;;;;;15.45;72.36;100911.47;5012862;28;97455;-27
2023/08/30 00:28:09;;;;;;;4.10;1.92;;;;;;;15.42;72.54;100902.66;5013137;28;97431;-27
2023/08/30 00:30:35;;;;;;;4.32;1.80;;;;;;;15.42;72.31;100905.38;5012948;28;96684;-27
2023/08/30 00:33:00;;;;;;;4.32;2.03;;;;;;;15.37;72.88;100900.28;5013282;28;96808;-27
2023/08/30 00:35:25;;;;;;;3.53;2.03;;;;;;;15.33;72.02;100882.44;5012683;28;97909;-26
2023/08/30 00:37:51;;;;;;;3.42;1.52;;;;;;;15.36;72.68;100886.78;5012321;28;97265;-27
2023/08/30 00:40:16;;;;;;;5.07;2.17;;;;;;;15.35;72.61;100893.22;5012273;28;96565;-26
2023/08/30 00:42:42;;;;;;;3.95;1.73;;;;;;;15.31;72.43;100886.31;5012826;28;96762;-27
2023/08/30 00:45:07;;;;;;;4.45;2.22;;;;;;;15.35;72.53;100895.97;5012305;28;99451;-27
2023/08/30 00:47:33;;;;;;;5.38;1.90;;;;;;;15.34;72.58;100884.19;5012561;28;97855;-26
2023/08/30 00:50:00;;;;;;;4.65;2.17;;;;;;;15.35;72.84;100893.22;5011233;28;96814;-27
2023/08/30 00:52:25;;;;;;;3.10;1.63;;;;;;;15.35;72.76;100898.69;5010806;28;97247;-27
2023/08/30 00:54:51;;;;;;;2.80;1.60;;;;;;;15.34;72.51;100880.59;5012636;28;97899;-28
2023/08/30 00:57:16;;;;;;;4.40;2.38;;;;;;;15.38;72.56;100887.53;5012222;28;98840;-27
2023/08/30 00:59:42;;;;;;;4.05;1.90;;;;;;;15.40;72.44;100889.16;5012546;28;96483;-26
2023/08/30 01:02:07;;;;;;;3.13;1.58;;;;;;;15.32;72.47;100877.09;5012618;28;96803;-27
2023/08/30 01:04:32;;;;;;;4.72;2.92;;;;;;;15.40;72.24;100878.22;5011807;28;97953;-27
2023/08/30 01:06:58;;;;;;;3.70;2.00;;;;;;;15.39;72.46;100871.00;5012159;28;97290;-27
2023/08/30 01:09:24;;;;;;;4.13;2.00;;;;;;;15.37;72.63;100870.28;5012073;28;96571;-26
2023/08/30 01:11:58;;;;;;;7.47;2.53;;;;;;;15.45;72.57;100876.00;5010973;28;96835;-27
2023/08/30 01:14:38;;;;;;;5.45;2.22;;;;;;;15.41;72.60;100860.00;5012284;28;97565;-26
2023/08/30 01:17:07;;;;;;;4.68;1.85;;;;;;;15.42;72.44;100857.13;5010209;28;100998;-27
2023/08/30 01:19:49;;;;;;;4.43;2.03;;;;;;;15.44;72.50;100862.44;5010379;28;96760;-27
2023/08/30 01:22:18;;;;;;;5.40;2.08;;;;;;;15.48;72.49;100869.41;5011178;28;96710;-27
2023/08/30 01:24:55;;;;;;;4.60;2.22;;;;;;;15.48;72.71;100859.34;5011819;28;97610;-27
2023/08/30 01:27:23;;;;;;;3.80;1.90;;;;;;;15.44;72.31;100857.00;5012099;28;97289;-27
2023/08/30 01:29:49;;;;;;;4.53;1.98;;;;;;;15.33;72.67;100844.25;5010088;28;96731;-27
2023/08/30 01:32:15;;;;;;;3.67;2.13;;;;;;;15.38;72.63;100868.44;5010580;28;96829;-26
2023/08/30 01:34:43;;;;;;;4.80;2.17;;;;;;;15.28;72.66;100847.34;5010292;28;101412;-27
2023/08/30 01:37:09;;;;;;;5.10;2.60;;;;;;;15.33;72.79;100870.69;5010351;28;100850;-26
2023/08/30 01:39:37;;;;;;;3.70;2.00;;;;;;;15.32;72.63;100868.91;5010088;28;96869;-27
2023/08/30 01:42:04;;;;;;;4.40;2.05;;;;;;;15.28;73.09;100851.94;5010466;28;96800;-27
2023/08/30 01:44:30;;;;;;;3.42;2.22;;;;;;;15.32;72.78;100864.31;5010176;28;101178;-27
2023/08/30 01:46:57;;;;;;;3.33;1.58;;;;;;;15.30;73.07;100858.13;5010619;28;100638;-27
2023/08/30 01:49:24;;;;;;;7.40;2.20;;;;;;;15.25;73.07;100849.44;5010337;28;96669;-27
2023/08/30 01:51:51;;;;;;;4.10;1.77;;;;;;;15.32;73.58;100860.72;5010423;28;96905;-26
2023/08/30 01:54:19;;;;;;;4.45;2.30;;;;;;;15.28;73.83;100862.84;5011131;28;97585;-26
2023/08/30 01:56:47;;;;;;;3.53;1.75;;;;;;;15.29;73.47;100857.25;5010118;28;100661;-27
2023/08/30 01:59:13;;;;;;;3.85;2.00;;;;;;;15.31;73.23;100850.81;5011371;28;96631;-27
2023/08/30 02:01:38;;;;;;;4.25;2.10;;;;;;;15.31;73.59;100846.22;5011720;28;96793;-27
2023/08/30 02:04:04;;;;;;;4.25;2.10;;;;;;;15.22;73.83;100841.50;5011357;28;99250;-27
2023/08/30 02:06:48;;;;;;;4.10;2.22;;;;;;;15.23;74.11;100849.59;5011594;28;98390;-26
2023/08/30 02:09:23;;;;;;;3.55;2.17;;;;;;;15.19;73.75;100847.22;5012624;28;96648;-27
2023/08/30 02:11:52;;;;;;;4.55;2.22;;;;;;;15.19;73.79;100850.81;5015354;28;96776;-27
2023/08/30 02:14:18;;;;;;;5.78;2.33;;;;;;;15.14;73.95;100838.56;5013392;28;100820;-26
2023/08/30 02:16:46;;;;;;;3.72;2.33;;;;;;;15.15;73.76;100830.22;5014303;28;99303;-27
2023/08/30 02:19:13;;;;;;;5.40;2.05;;;;;;;15.12;74.28;100821.44;5012873;28;97443;-27
2023/08/30 02:21:40;;;;;;;3.47;1.83;;;;;;;15.17;74.00;100830.97;5013546;28;96870;-27
2023/08/30 02:24:06;;;;;;;4.43;2.40;;;;;;;15.15;73.94;100824.75;5013287;28;101067;-26
2023/08/30 02:26:31;;;;;;;4.57;1.92;;;;;;;15.16;73.83;100825.63;5013245;28;101431;-27
2023/08/30 02:28:56;;;;;;;3.83;2.28;;;;;;;15.08;73.68;100812.63;5014927;28;96638;-26
2023/08/30 02:31:22;;;;;;;5.28;2.70;;;;;;;15.07;74.07;100810.88;5015190;28;96821;-27
2023/08/30 02:33:47;;;;;;;7.63;2.67;;;;;;;15.12;74.00;100826.88;5014570;28;97408;-26
2023/08/30 02:36:12;;;;;;;4.68;2.13;;;;;;;15.02;74.28;100824.03;5015096;28;98358;-26
2023/08/30 02:38:38;;;;;;;5.47;2.22;;;;;;;14.99;74.08;100827.00;5014064;28;96743;-27
2023/08/30 02:41:03;;;;;;;5.57;2.05;;;;;;;14.97;74.33;100826.25;5014567;28;96826;-27
2023/08/30 02:43:28;;;;;;;6.65;3.03;;;;;;;14.98;74.13;100825.28;5014124;28;97449;-27
2023/08/30 02:45:54;;;;;;;5.50;2.22;;;;;;;14.94;74.58;100821.03;5014455;28;97326;-26
2023/08/30 02:48:20;;;;;;;5.13;2.75;;;;;;;14.91;74.42;100815.84;5014549;28;96455;-27
2023/08/30 02:50:45;;;;;;;6.63;2.85;;;;;;;14.86;74.69;100814.34;5012879;28;96819;-27
2023/08/30 02:53:10;;;;;;;8.02;3.28;;;;;;;14.89;74.60;100804.19;5014386;28;97480;-27
2023/08/30 02:55:36;;;;;;;4.00;2.22;;;;;;;14.84;75.24;100801.81;5012772;28;99319;-28
2023/08/30 02:58:01;;;;;;;6.88;2.80;;;;;;;14.79;74.70;100795.88;5014470;28;96490;-26
2023/08/30 03:00:27;;;;;;;4.88;2.47;;;;;;;14.71;74.80;100784.72;5014862;28;96788;-27
2023/08/30 03:02:52;;;;;;;6.72;3.20;;;;;;;14.62;74.91;100779.00;5014171;28;97941;-27
2023/08/30 03:05:18;;;;;;;6.85;2.38;;;;;;;14.61;75.65;100770.94;5014059;28;97459;-27
2023/08/30 03:07:44;;;;;;;4.47;2.35;;;;;;;14.58;75.32;100761.16;5012021;28;97817;-27
2023/08/30 03:10:10;;;;;;;7.97;3.15;;;;;;;14.54;75.27;100750.63;5014021;28;96875;-27
2023/08/30 03:12:35;;;;;;;5.47;2.65;;;;;;;14.51;75.04;100756.28;5012572;28;100781;-26
2023/08/30 03:15:00;;;;;;;6.00;3.25;;;;;;;14.51;75.46;100756.28;5012359;28;100717;-26
2023/08/30 03:17:26;;;;;;;7.55;2.90;;;;;;;14.42;75.12;100747.00;5013577;28;96793;-27
2023/08/30 03:19:53;;;;;;;6.43;3.33;;;;;;;14.28;75.27;100739.91;5013644;28;96778;-27
2023/08/30 03:22:18;;;;;;;5.05;2.60;;;;;;;14.26;75.35;100741.03;5011299;28;101301;-27
2023/08/30 03:24:44;;;;;;;4.78;2.70;;;;;;;14.21;75.63;100727.75;5014114;28;97854;-27
2023/08/30 03:27:09;;;;;;;5.80;2.65;;;;;;;14.20;75.68;100732.31;5014052;28;96476;-27
2023/08/30 03:29:34;;;;;;;4.55;2.47;;;;;;;14.16;75.42;100719.94;5013861;28;96887;-26
2023/08/30 03:32:00;;;;;;;7.50;2.58;;;;;;;14.17;75.34;100735.28;5013368;28;98049;-27
2023/08/30 03:34:25;;;;;;;4.60;2.55;;;;;;;14.11;75.20;100724.91;5013616;28;97826;-27
2023/08/30 03:36:54;;;;;;;5.28;2.30;;;;;;;14.13;75.49;100725.63;5013460;28;96478;-27
2023/08/30 03:39:20;;;;;;;6.28;2.75;;;;;;;14.13;75.32;100724.75;5013178;28;96859;-27
2023/08/30 03:41:46;;;;;;;5.25;2.75;;;;;;;14.13;75.50;100722.03;5012108;28;99138;-27
2023/08/30 03:44:11;;;;;;;5.32;2.80;;;;;;;14.09;75.52;100721.41;5013484;28;97875;-27
2023/08/30 03:46:36;;;;;;;8.63;3.22;;;;;;;13.99;75.08;100698.59;5013586;28;96474;-27
2023/08/30 03:49:03;;;;;;;6.70;2.97;;;;;;;14.10;75.66;100723.16;5014313;28;96754;-27
2023/08/30 03:51:29;;;;;;;7.55;2.88;;;;;;;14.09;75.40;100720.56;5013413;28;98405;-27
2023/08/30 03:53:56;;;;;;;4.50;2.40;;;;;;;14.01;75.86;100716.59;5013230;28;97100;-27
2023/08/30 03:56:22;;;;;;;5.90;2.65;;;;;;;13.98;76.00;100705.91;5012848;28;96518;-26
2023/08/30 03:58:47;;;;;;;4.97;2.78;;;;;;;14.05;76.05;100719.91;5011744;28;96852;-27
2023/08/30 04:01:12;;;;;;;5.88;3.28;;;;;;;13.98;75.54;100705.91;5013272;28;97374;-26
2023/08/30 04:03:38;;;;;;;5.13;3.15;;;;;;;13.96;76.00;100704.28;5013268;28;97340;-27
2023/08/30 04:06:03;;;;;;;5.30;2.80;;;;;;;13.97;76.47;100712.34;5013188;28;96617;-27
2023/08/30 04:08:28;;;;;;;6.35;2.70;;;;;;;13.97;76.26;100706.91;5012990;28;96800;-27
2023/08/30 04:10:54;;;;;;;5.03;2.67;;;;;;;13.93;76.29;100699.09;5013065;28;97359;-27
2023/08/30 04:13:19;;;;;;;8.05;3.25;;;;;;;13.97;75.95;100697.88;5013544;28;97794;-26
2023/08/30 04:15:45;;;;;;;4.32;2.55;;;;;;;13.93;76.17;100699.09;5012652;28;96694;-27
2023/08/30 04:18:10;;;;;;;6.30;3.13;;;;;;;13.89;75.80;100697.59;5013317;28;96489;-26
2023/08/30 04:20:44;;;;;;;5.80;3.15;;;;;;;13.92;76.61;100692.78;5012420;28;98056;-27
2023/08/30 04:23:09;;;;;;;5.63;2.72;;;;;;;13.96;76.27;100696.13;5011497;28;101038;-26
2023/08/30 04:25:36;;;;;;;7.45;3.25;;;;;;;13.92;76.09;100683.72;5012795;28;96567;-28
2023/08/30 04:28:02;;;;;;;7.03;3.10;;;;;;;13.92;76.20;100672.84;5012885;28;96596;-27
2023/08/30 04:30:27;;;;;;;5.97;3.10;;;;;;;13.91;76.11;100669.25;5012883;28;97920;-26
2023/08/30 04:32:53;;;;;;;5.93;2.97;;;;;;;14.00;76.92;100673.97;5012490;28;97228;-26
2023/08/30 04:35:18;;;;;;;5.70;2.85;;;;;;;13.91;76.99;100666.53;5012803;28;96745;-26
2023/08/30 04:37:43;;;;;;;5.55;2.85;;;;;;;13.94;76.43;100673.59;5013042;28;96749;-26
2023/08/30 04:40:09;;;;;;;5.05;2.90;;;;;;;13.98;76.12;100665.06;5012394;28;99336;-26
2023/08/30 04:42:36;;;;;;;6.05;3.00;;;;;;;13.98;76.15;100669.66;5012382;28;99510;-27
2023/08/30 04:45:02;;;;;;;6.13;3.03;;;;;;;13.94;76.78;100662.69;5010682;28;97124;-27
2023/08/30 04:47:29;;;;;;;4.70;2.53;;;;;;;13.92;76.86;100660.13;5012475;28;97304;-26
2023/08/30 04:49:54;;;;;;;5.97;3.10;;;;;;;13.98;76.60;100675.09;5010960;28;101066;-27
2023/08/30 04:52:20;;;;;;;6.60;3.22;;;;;;;14.00;76.49;100670.41;5012478;28;97766;-28
2023/08/30 04:54:45;;;;;;;6.28;3.05;;;;;;;14.00;76.77;100678.56;5012292;28;96498;-27
2023/08/30 04:57:14;;;;;;;8.27;3.35;;;;;;;13.97;76.81;100685.13;5012346;28;96878;-27
2023/08/30 04:59:40;;;;;;;5.68;3.15;;;;;;;13.99;77.17;100690.44;5010763;28;100897;-27
2023/08/30 05:02:05;;;;;;;6.25;3.08;;;;;;;13.97;78.03;100697.88;5011143;28;101408;-26
2023/08/30 05:04:31;;;;;;;5.82;3.28;;;;;;;13.97;78.23;100701.47;5011930;28;96549;-26
2023/08/30 05:06:56;;;;;;;5.90;2.88;;;;;;;14.02;77.83;100703.81;5012117;28;96864;-27
2023/08/30 05:09:24;;;;;;;4.70;2.83;;;;;;;14.02;77.74;100693.78;5011430;28;98881;-26
2023/08/30 05:11:50;;;;;;;5.85;2.67;;;;;;;14.04;78.40;100699.13;5010779;28;101010;-27
2023/08/30 05:14:16;;;;;;;8.18;3.40;;;;;;;14.10;78.02;100692.31;4994210;28;96602;-27
2023/08/30 05:16:41;;;;;;;5.03;2.70;;;;;;;14.06;79.67;100685.38;5012050;28;96795;-27
2023/08/30 05:19:06;;;;;;;5.25;2.50;;;;;;;14.07;79.43;100690.72;5011564;28;97944;-26
2023/08/30 05:21:32;;;;;;;5.55;3.10;;;;;;;14.02;81.73;100691.06;5012190;28;97756;-27
2023/08/30 05:23:57;;;;;;;4.82;2.45;;;;;;;13.90;82.16;100677.56;5012294;28;97070;-27
2023/08/30 05:26:22;;;;;;;4.78;2.45;;;;;;;13.84;83.04;100689.78;5012620;28;96778;-27
2023/08/30 05:28:48;;;;;;;5.60;2.80;;;;;;;13.77;83.87;100677.63;5012375;28;97440;-26
2023/08/30 05:31:13;;;;;;;4.00;2.30;;;;;;;13.83;83.71;100665.41;5010461;28;97912;-26
2023/08/30 05:33:38;;;;;;;5.32;3.00;;;;;;;13.86;83.59;100665.16;5011488;28;96610;-27
2023/08/30 05:36:04;;;;;;;4.13;2.33;;;;;;;13.84;83.07;100657.09;5012147;28;96775;-26
2023/08/30 05:38:29;;;;;;;10.15;3.17;;;;;;;13.88;82.27;100661.34;5011219;28;98783;-27
2023/08/30 05:40:55;;;;;;;5.82;2.88;;;;;;;13.88;84.69;100660.47;5011857;28;97634;-26
2023/08/30 05:43:20;;;;;;;6.53;3.05;;;;;;;13.90;85.03;100659.38;5011789;28;96566;-27
2023/08/30 05:45:45;;;;;;;6.50;3.55;;;;;;;13.84;86.47;100646.22;5015145;28;96793;-28
2023/08/30 05:48:11;;;;;;;6.38;2.97;;;;;;;13.82;84.90;100642.75;5015226;28;97279;-27
2023/08/30 05:50:37;;;;;;;5.20;3.05;;;;;;;13.89;86.29;100646.72;5015294;28;98885;-27
2023/08/30 05:53:03;;;;;;;4.97;2.30;;;;;;;13.88;85.63;100642.28;5015342;28;96542;-27
2023/08/30 05:55:29;;;;;;;5.50;2.88;;;;;;;13.87;85.17;100635.09;5013834;28;96937;-28
2023/08/30 05:57:54;;;;;;;6.95;2.78;;;;;;;13.88;85.01;100636.81;5014641;28;97944;-27
2023/08/30 06:00:20;;;;;;;3.83;2.03;;;;;;;13.90;86.60;100634.00;5014923;28;99465;-27
2023/08/30 06:02:45;;;;;;;4.75;2.78;;;;;;;13.86;86.12;100625.19;5015099;28;96770;-27
2023/08/30 06:05:11;;;;;;;5.57;2.67;;;;;;;13.83;87.57;100633.59;5014848;28;96850;-27
2023/08/30 06:07:36;;;;;;;5.95;2.70;;;;;;;13.80;86.45;100622.97;5014993;28;98049;-27
2023/08/30 06:10:02;;;;;;;5.10;2.40;;;;;;;13.82;86.93;100634.56;5015093;28;97719;-26
2023/08/30 06:12:27;;;;;;;5.97;2.70;;;;;;;13.78;86.92;100627.66;5015154;28;96525;-27
2023/08/30 06:14:53;;;;;;;4.88;2.38;;;;;;;13.74;89.46;100635.19;5015545;28;96866;-27
2023/08/30 06:17:19;;;;;;;5.57;2.67;;;;;;;13.76;89.09;100638.66;5014123;28;97356;-27
2023/08/30 06:19:46;;;;;;;6.88;2.42;;;;;;;13.81;88.44;100636.44;5013141;28;100863;-26
2023/08/30 06:22:11;;;;;;;4.50;2.28;;;;;;;13.73;88.02;100627.13;5012869;28;97232;-27
2023/08/30 06:24:37;;;;;;;5.78;2.90;;;;;;;13.73;88.00;100617.13;5014813;28;96898;-26
2023/08/30 06:27:02;;;;;;;4.97;2.70;;;;;;;13.79;87.10;100623.94;5014783;28;97374;-27
2023/08/30 06:29:28;;;;;;;5.07;2.10;;;;;;;13.81;87.57;100630.13;5013490;28;99020;-27
2023/08/30 06:31:53;;;;;;;5.93;2.45;;;;;;;13.89;87.56;100630.38;5014488;28;96526;-26
2023/08/30 06:34:18;;;;;;;5.03;2.33;;;;;;;13.91;88.99;100625.69;5014849;28;96892;-27
2023/08/30 06:36:44;;;;;;;5.68;2.97;;;;;;;13.91;88.01;100614.78;5014546;28;97460;-27
2023/08/30 06:39:09;;;;;;;6.05;2.72;;;;;;;13.98;88.66;100618.75;5014513;28;96867;-27
2023/08/30 06:41:34;;;;;;;4.47;2.30;;;;;;;13.97;88.05;100611.59;5014939;28;96552;-27
2023/08/30 06:44:00;;;;;;;6.78;3.35;;;;;;;14.02;88.92;100616.69;5014700;28;96762;-27
2023/08/30 06:46:25;;;;;;;5.07;3.47;;;;;;;13.92;88.55;100611.09;5013779;28;97479;-27
2023/08/30 06:48:50;;;;;;;6.53;2.92;;;;;;;13.94;89.35;100611.84;5014028;28;99285;-26
2023/08/30 06:51:16;;;;;;;4.45;2.65;;;;;;;13.92;87.90;100604.75;5014486;28;96644;-27
2023/08/30 06:53:41;;;;;;;6.47;2.80;;;;;;;13.90;87.83;100598.59;5014241;28;96905;-27
2023/08/30 06:56:06;;;;;;;4.22;2.60;;;;;;;13.91;87.77;100597.59;5014024;28;97875;-28
2023/08/30 06:58:32;;;;;;;4.95;2.65;;;;;;;13.98;89.55;100602.41;5014462;28;97294;-27
2023/08/30 07:00:58;;;;;;;3.10;2.05;;;;;;;13.92;89.10;100589.31;5014113;28;96706;-27
2023/08/30 07:03:23;;;;;;;2.70;1.73;;;;;;;13.93;90.41;100588.31;5014493;28;96758;-27
2023/08/30 07:05:51;;;;;;;3.53;2.00;;;;;;;13.91;90.62;100590.28;5014162;28;97921;-27
2023/08/30 07:08:16;;;;;;;5.85;2.13;;;;;;;13.89;89.63;100584.09;5012473;28;100925;-27
2023/08/30 07:10:42;;;;;;;7.22;1.77;;;;;;;13.79;89.69;100581.22;5013806;28;96547;-26
2023/08/30 07:13:10;;;;;;;3.30;1.73;;;;;;;13.78;92.36;100571.34;5014202;28;96809;-27
2023/08/30 07:15:40;;;;;;;3.33;1.83;;;;;;;13.85;91.37;100577.19;5013431;28;99621;-26
2023/08/30 07:18:06;;;;;;;4.70;2.17;;;;;;;13.85;92.05;100571.72;5013885;28;97795;-27
2023/08/30 07:20:31;;;;;;;6.47;2.15;;;;;;;13.86;91.06;100568.00;5014122;28;96498;-27
2023/08/30 07:22:57;;;;;;;3.25;1.80;;;;;;;13.86;91.33;100554.41;5013871;28;96903;-26
2023/08/30 07:25:22;;;;;;;4.03;1.38;;;;;;;13.91;93.62;100562.19;5013770;28;97888;-27
2023/08/30 07:27:47;;;;;;;1.95;1.42;;;;;;;13.85;92.88;100555.41;5014167;28;97789;-26
2023/08/30 07:30:13;;;;;;;4.68;2.15;;;;;;;13.93;91.97;100562.94;5013811;28;96631;-27
2023/08/30 07:32:38;;;;;;;4.82;2.00;;;;;;;13.89;92.21;100567.75;5013961;28;96786;-27
2023/08/30 07:35:05;;;;;;;3.35;1.92;;;;;;;13.92;91.68;100558.47;5013123;28;97969;-28
2023/08/30 07:37:30;;;;;;;2.85;1.48;;;;;;;13.88;94.50;100560.59;5012004;28;101358;-27
2023/08/30 07:39:56;;;;;;;2.78;1.58;;;;;;;13.89;92.74;100559.59;5011757;28;96917;-27
2023/08/30 07:42:21;;;;;;;2.95;1.25;;;;;;;13.90;92.57;100558.63;5014077;28;96823;-27
2023/08/30 07:44:46;;;;;;;2.17;1.23;;;;;;;13.93;94.29;100544.75;5012934;28;99372;-27
2023/08/30 07:47:12;;;;;;;2.10;1.38;;;;;;;13.97;94.64;100548.09;5013594;28;97753;-27
2023/08/30 07:49:37;;;;;;;2.03;1.40;;;;;;;13.96;94.42;100544.50;5013454;28;96503;-27
2023/08/30 07:52:03;;;;;;;2.92;1.50;;;;;;;14.00;93.73;100537.81;5006631;28;96832;-27
2023/08/30 07:54:28;;;;;;;2.67;1.30;;;;;;;13.99;94.37;100536.09;4996301;28;101464;-27
2023/08/30 07:56:54;;;;;;;2.22;1.48;;;;;;;14.02;94.63;100533.09;4990802;28;99352;-27
2023/08/30 07:59:19;;;;;;;3.00;1.70;;;;;;;14.14;93.08;100535.84;4991565;28;96582;-27
2023/08/30 08:01:46;;;;;;;2.75;1.48;;;;;;;14.17;95.19;100544.59;4993429;28;96782;-26
2023/08/30 08:04:11;;;;;;;5.78;1.70;;;;;;;14.16;93.82;100529.28;4990277;28;101093;-26
2023/08/30 08:06:36;;;;;;;2.35;1.30;;;;;;;14.29;94.10;100542.75;4992416;28;97231;-27
2023/08/30 08:09:02;;;;;;;3.15;1.92;;;;;;;14.33;94.44;100548.81;4993380;28;96663;-29
2023/08/30 08:11:27;;;;;;;4.70;2.05;;;;;;;14.35;95.09;100547.69;4991396;28;97163;-27
2023/08/30 08:13:52;;;;;;;4.20;1.90;;;;;;;14.37;93.58;100539.38;4990915;28;98169;-29
2023/08/30 08:16:18;;;;;;;2.90;1.65;;;;;;;14.47;94.63;100539.47;4990253;28;98746;-27
2023/08/30 08:18:43;;;;;;;3.22;1.85;;;;;;;14.56;94.71;100550.53;4990809;28;96878;-30
2023/08/30 08:21:08;;;;;;;3.42;2.08;;;;;;;14.60;93.91;100541.09;4990788;28;96853;-27
2023/08/30 08:23:34;;;;;;;2.25;1.55;;;;;;;14.64;94.79;100536.25;4989891;28;98907;-30
2023/08/30 08:26:00;;;;;;;4.03;2.00;;;;;;;14.73;93.36;100538.22;4991751;28;97361;-27
2023/08/30 08:28:26;;;;;;;4.55;1.83;;;;;;;14.78;94.07;100538.69;4991670;28;96601;-27
2023/08/30 08:30:51;;;;;;;3.90;2.10;;;;;;;14.85;92.64;100529.00;4992948;28;96843;-26
2023/08/30 08:33:17;;;;;;;3.35;1.92;;;;;;;14.96;92.75;100530.81;4992937;28;97851;-27
2023/08/30 08:35:43;;;;;;;3.90;2.35;;;;;;;15.15;93.03;100534.69;4992734;28;98757;-28
2023/08/30 08:38:10;;;;;;;3.13;1.90;;;;;;;15.26;92.60;100535.50;4992716;28;96727;-27
2023/08/30 08:40:41;;;;;;;2.63;1.65;;;;;;;15.31;93.52;100534.25;4991767;28;96852;-26
2023/08/30 08:43:09;;;;;;;5.30;2.03;;;;;;;15.36;92.69;100540.16;4991145;28;100856;-27
2023/08/30 08:45:36;;;;;;;2.78;1.65;;;;;;;15.70;92.33;100530.78;4991208;28;99577;-27
2023/08/30 08:48:04;;;;;;;3.90;2.15;;;;;;;16.21;91.84;100533.56;4990868;28;97176;-27
2023/08/30 08:50:29;;;;;;;3.40;1.95;;;;;;;16.54;90.67;100533.25;4991172;28;97011;-27
2023/08/30 08:52:56;;;;;;;3.47;2.58;;;;;;;16.89;89.67;100534.59;4992823;28;97209;-27
2023/08/30 08:55:21;;;;;;;3.97;2.13;;;;;;;17.18;88.09;100540.09;4990940;28;101006;-27
2023/08/30 08:57:48;;;;;;;3.28;1.95;;;;;;;17.34;86.77;100550.44;4991180;28;97495;-28
2023/08/30 09:00:16;;;;;;;2.92;1.92;;;;;;;17.54;85.96;100540.34;4990984;28;96742;-27
2023/08/30 09:02:42;;;;;;;4.32;1.85;;;;;;;17.77;84.95;100543.59;4990937;28;101317;-27
2023/08/30 09:05:08;;;;;;;3.08;1.45;;;;;;;17.75;84.46;100559.31;4991129;28;100973;-28
2023/08/30 09:07:35;;;;;;;5.10;1.90;;;;;;;17.65;84.69;100553.00;4990887;28;96722;-27
2023/08/30 09:10:01;;;;;;;1.90;1.17;;;;;;;17.59;85.38;100548.09;4992115;28;96851;-27
2023/08/30 09:12:26;;;;;;;1.98;1.25;;;;;;;17.58;84.79;100568.28;4991765;28;97990;-27
2023/08/30 09:14:55;;;;;;;2.05;1.20;;;;;;;17.38;84.97;100562.84;4992213;28;97832;-27
2023/08/30 09:17:21;;;;;;;2.63;1.13;;;;;;;17.25;85.66;100556.78;4990520;28;96826;-27
2023/08/30 09:19:46;;;;;;;1.45;0.95;;;;;;;17.16;85.89;100563.13;4991958;28;96824;-27
2023/08/30 09:22:12;;;;;;;1.40;1.10;;;;;;;17.10;86.56;100569.19;4992308;28;97862;-27
2023/08/30 09:24:41;;;;;;;1.27;1.05;;;;;;;17.08;86.89;100568.47;4992008;28;99677;-27
2023/08/30 09:27:06;;;;;;;6.95;1.20;;;;;;;17.01;86.17;100554.50;4990579;28;96631;-27
2023/08/30 09:29:32;;;;;;;2.63;1.02;;;;;;;17.08;85.89;100572.06;4992554;28;96823;-28
2023/08/30 09:31:57;;;;;;;3.45;1.25;;;;;;;17.01;86.27;100579.13;4992026;28;97941;-27
2023/08/30 09:34:26;;;;;;;1.58;0.90;;;;;;;16.85;85.55;100576.97;4991714;28;99213;-27
2023/08/30 09:36:53;;;;;;;1.52;0.82;;;;;;;16.70;85.23;100575.59;4991415;28;96578;-27
2023/08/30 09:39:19;;;;;;;1.25;0.77;;;;;;;16.61;85.69;100570.97;4990123;28;97009;-27
2023/08/30 09:41:48;;;;;;;3.28;1.20;;;;;;;16.62;85.41;100575.44;4991855;28;97945;-27
2023/08/30 09:44:16;;;;;;;5.93;1.45;;;;;;;16.62;85.14;100578.19;4990421;28;100840;-27
2023/08/30 09:46:42;;;;;;;6.20;1.50;;;;;;;16.63;85.82;100582.63;4990533;28;96683;-26
2023/08/30 09:49:09;;;;;;;1.48;0.95;;;;;;;16.71;85.28;100578.19;4990403;28;96833;-27
2023/08/30 09:51:37;;;;;;;1.58;1.02;;;;;;;16.94;84.78;100564.28;4990334;28;98912;-27
2023/08/30 09:54:04;;;;;;;1.98;0.98;;;;;;;17.01;83.82;100561.84;4990486;28;99007;-27
2023/08/30 09:56:32;;;;;;;1.90;1.10;;;;;;;17.02;83.53;100569.03;4991590;28;96567;-27
2023/08/30 09:58:59;;;;;;;1.70;0.95;;;;;;;16.90;83.31;100568.31;4990388;28;96936;-27
2023/08/30 10:01:28;;;;;;;4.57;1.05;;;;;;;16.88;83.03;100581.28;4989648;28;100811;-26
2023/08/30 10:03:56;;;;;;;9.02;1.10;;;;;;;16.72;82.63;100570.84;4991647;28;97477;-27
2023/08/30 10:06:24;;;;;;;2.00;0.82;;;;;;;16.71;82.15;100596.50;4990285;28;96710;-27
2023/08/30 10:08:51;;;;;;;3.22;1.10;;;;;;;16.61;82.91;100596.44;4990234;28;96931;-27
2023/08/30 10:11:18;;;;;;;5.38;1.05;;;;;;;16.59;83.36;100601.19;4990055;28;101004;-27
2023/08/30 10:13:45;;;;;;;2.42;1.15;;;;;;;16.53;83.98;100608.06;4991255;28;98975;-28
2023/08/30 10:16:18;;;;;;;3.33;1.30;;;;;;;16.49;84.06;100614.84;4990991;28;96859;-27
2023/08/30 10:18:47;;;;;;;4.97;1.35;;;;;;;16.42;84.82;100616.41;4990163;28;96840;-27
2023/08/30 10:21:13;;;;;;;4.57;1.70;;;;;;;16.31;84.78;100621.97;4989550;28;100818;-27
2023/08/30 10:23:40;;;;;;;4.13;1.15;;;;;;;16.25;85.10;100617.88;4989974;28;100950;-26
2023/08/30 10:26:07;;;;;;;1.38;0.85;;;;;;;16.23;85.80;100614.44;4973243;28;97431;-27
2023/08/30 10:28:35;;;;;;;1.67;1.00;;;;;;;16.22;85.75;100620.03;4990010;28;96971;-26
2023/08/30 10:31:01;;;;;;;3.10;1.33;;;;;;;16.22;85.30;100617.31;4991944;28;100895;-28
2023/08/30 10:33:26;;;;;;;4.63;1.00;;;;;;;16.22;86.20;100611.84;4994576;28;99152;-27
2023/08/30 10:35:52;;;;;;;2.65;1.02;;;;;;;16.32;86.27;100618.22;4994199;28;96716;-26
2023/08/30 10:38:28;;;;;;;5.35;1.30;;;;;;;16.38;86.05;100625.03;4994578;28;96776;-27
2023/08/30 10:40:54;;;;;;;2.85;1.05;;;;;;;16.41;86.11;100624.72;4992996;28;101235;-27
2023/08/30 10:43:30;;;;;;;2.90;0.98;;;;;;;16.53;85.80;100626.34;4993458;28;99059;-27
2023/08/30 10:46:01;;;;;;;3.92;1.23;;;;;;;16.62;85.45;100635.59;4993283;28;96674;-27
2023/08/30 10:48:38;;;;;;;4.00;1.25;;;;;;;16.71;85.08;100618.38;4994540;28;96771;-27
2023/08/30 10:51:07;;;;;;;4.97;1.65;;;;;;;16.89;84.76;100634.97;4993989;28;97352;-27
2023/08/30 10:53:32;;;;;;;3.78;1.40;;;;;;;17.06;84.81;100628.81;4994106;28;97901;-27
2023/08/30 10:56:10;;;;;;;2.97;1.17;;;;;;;17.28;83.59;100622.22;4992989;28;96766;-27
2023/08/30 10:58:46;;;;;;;5.32;1.88;;;;;;;17.82;83.04;100623.50;4994744;28;96784;-27
2023/08/30 11:01:13;;;;;;;6.30;1.23;;;;;;;18.09;81.42;100630.09;4994345;28;97611;-27
2023/08/30 11:03:41;;;;;;;3.33;0.90;;;;;;;18.05;80.80;100625.91;4992617;28;101144;-28
2023/08/30 11:06:07;;;;;;;3.92;0.85;;;;;;;17.99;80.39;100626.50;4994214;28;96522;-27
2023/08/30 11:08:33;;;;;;;2.90;0.98;;;;;;;17.87;79.44;100622.19;4994393;28;96861;-26
2023/08/30 11:11:08;;;;;;;4.65;0.77;;;;;;;17.81;79.52;100635.47;4992562;28;100887;-28
2023/08/30 11:13:34;;;;;;;2.95;0.85;;;;;;;17.71;79.09;100630.97;4992689;28;100895;-26
2023/08/30 11:16:04;;;;;;;2.85;1.20;;;;;;;17.71;79.69;100634.59;4993125;28;96541;-28
2023/08/30 11:18:39;;;;;;;4.03;0.80;;;;;;;17.65;79.73;100634.31;4992425;28;97330;-27
2023/08/30 11:21:06;;;;;;;4.38;1.10;;;;;;;17.61;79.69;100631.88;4992241;28;100931;-27